sensor_id;sensor_type;location;lat;lon;timestamp;P1;durP1;ratioP1;P2;durP2;ratioP2
21569;SDS011;57598;50.888;4.746;2023-02-04T00:00:10;59.65;;;53.33;;
21569;SDS011;57598;50.888;4.746;2023-02-04T00:02:38;60.63;;;54.17;;
21569;SDS011;57598;50.888;4.746;2023-02-04T00:05:06;66.80;;;58.38;;
21569;SDS011;57598;50.888;4.746;2023-02-04T00:07:33;60.30;;;53.80;;
21569;SDS011;57598;50.888;4.746;2023-02-04T00:10:00;60.92;;;54.47;;
21569;SDS011;57598;50.888;4.746;2023-02-04T00:12:29;60.00;;;53.50;;
21569;SDS011;57598;50.888;4.746;2023-02-04T00:14:56;60.38;;;53.97;;
21569;SDS011;57598;50.888;4.746;2023-02-04T00:17:24;62.40;;;55.60;;
21569;SDS011;57598;50.888;4.746;2023-02-04T00:19:51;64.00;;;57.25;;
21569;SDS011;57598;50.888;4.746;2023-02-04T00:22:18;61.38;;;54.78;;
21569;SDS011;57598;50.888;4.746;2023-02-04T00:24:45;60.05;;;53.45;;
21569;SDS011;57598;50.888;4.746;2023-02-04T00:27:14;59.13;;;52.63;;
21569;SDS011;57598;50.888;4.746;2023-02-04T00:29:43;60.90;;;53.35;;
21569;SDS011;57598;50.888;4.746;2023-02-04T00:32:10;336.55;;;126.78;;
21569;SDS011;57598;50.888;4.746;2023-02-04T00:34:37;62.38;;;55.88;;
21569;SDS011;57598;50.888;4.746;2023-02-04T00:37:04;67.07;;;60.08;;
21569;SDS011;57598;50.888;4.746;2023-02-04T00:39:32;68.25;;;54.92;;
21569;SDS011;57598;50.888;4.746;2023-02-04T00:41:59;62.20;;;54.17;;
21569;SDS011;57598;50.888;4.746;2023-02-04T00:44:26;60.95;;;53.70;;
21569;SDS011;57598;50.888;4.746;2023-02-04T00:46:55;60.58;;;52.65;;
21569;SDS011;57598;50.888;4.746;2023-02-04T00:49:22;65.50;;;57.42;;
21569;SDS011;57598;50.888;4.746;2023-02-04T00:51:49;64.10;;;57.05;;
21569;SDS011;57598;50.888;4.746;2023-02-04T00:54:17;67.00;;;56.63;;
21569;SDS011;57598;50.888;4.746;2023-02-04T00:56:44;62.97;;;56.05;;
21569;SDS011;57598;50.888;4.746;2023-02-04T00:59:11;64.53;;;57.10;;
21569;SDS011;57598;50.888;4.746;2023-02-04T01:01:39;67.65;;;56.95;;
21569;SDS011;57598;50.888;4.746;2023-02-04T01:04:07;63.65;;;56.40;;
21569;SDS011;57598;50.888;4.746;2023-02-04T01:06:34;63.95;;;56.75;;
21569;SDS011;57598;50.888;4.746;2023-02-04T01:09:02;63.90;;;56.75;;
21569;SDS011;57598;50.888;4.746;2023-02-04T01:11:30;68.10;;;58.45;;
21569;SDS011;57598;50.888;4.746;2023-02-04T01:13:57;67.90;;;60.05;;
21569;SDS011;57598;50.888;4.746;2023-02-04T01:16:24;70.95;;;58.75;;
21569;SDS011;57598;50.888;4.746;2023-02-04T01:18:52;66.57;;;58.53;;
21569;SDS011;57598;50.888;4.746;2023-02-04T01:21:21;67.40;;;59.08;;
21569;SDS011;57598;50.888;4.746;2023-02-04T01:23:48;65.15;;;56.42;;
21569;SDS011;57598;50.888;4.746;2023-02-04T01:26:16;70.70;;;59.60;;
21569;SDS011;57598;50.888;4.746;2023-02-04T01:28:43;66.82;;;56.63;;
21569;SDS011;57598;50.888;4.746;2023-02-04T01:31:11;70.45;;;61.13;;
21569;SDS011;57598;50.888;4.746;2023-02-04T01:33:38;69.18;;;58.92;;
21569;SDS011;57598;50.888;4.746;2023-02-04T01:36:05;71.57;;;59.38;;
21569;SDS011;57598;50.888;4.746;2023-02-04T01:38:34;76.30;;;63.50;;
21569;SDS011;57598;50.888;4.746;2023-02-04T01:41:01;91.20;;;81.40;;
21569;SDS011;57598;50.888;4.746;2023-02-04T01:43:29;97.43;;;81.47;;
21569;SDS011;57598;50.888;4.746;2023-02-04T01:55:12;137.50;;;124.28;;
21569;SDS011;57598;50.888;4.746;2023-02-04T01:57:39;160.65;;;145.43;;
21569;SDS011;57598;50.888;4.746;2023-02-04T02:09:36;156.00;;;141.27;;
21569;SDS011;57598;50.888;4.746;2023-02-04T02:12:05;150.13;;;135.70;;
21569;SDS011;57598;50.888;4.746;2023-02-04T02:14:32;147.27;;;133.07;;
21569;SDS011;57598;50.888;4.746;2023-02-04T02:16:59;149.32;;;134.90;;
21569;SDS011;57598;50.888;4.746;2023-02-04T02:19:27;153.02;;;138.25;;
21569;SDS011;57598;50.888;4.746;2023-02-04T02:21:58;151.93;;;137.27;;
21569;SDS011;57598;50.888;4.746;2023-02-04T02:24:29;152.60;;;137.98;;
21569;SDS011;57598;50.888;4.746;2023-02-04T02:26:58;144.82;;;130.50;;
21569;SDS011;57598;50.888;4.746;2023-02-04T02:29:25;157.80;;;143.05;;
21569;SDS011;57598;50.888;4.746;2023-02-04T02:31:53;157.32;;;142.52;;
21569;SDS011;57598;50.888;4.746;2023-02-04T02:34:22;151.18;;;136.80;;
21569;SDS011;57598;50.888;4.746;2023-02-04T02:36:50;144.93;;;130.85;;
21569;SDS011;57598;50.888;4.746;2023-02-04T02:39:17;140.25;;;126.35;;
21569;SDS011;57598;50.888;4.746;2023-02-04T02:41:46;143.98;;;130.23;;
21569;SDS011;57598;50.888;4.746;2023-02-04T02:44:13;136.30;;;122.93;;
21569;SDS011;57598;50.888;4.746;2023-02-04T02:46:42;164.27;;;148.90;;
21569;SDS011;57598;50.888;4.746;2023-02-04T02:49:10;158.43;;;143.65;;
21569;SDS011;57598;50.888;4.746;2023-02-04T02:51:39;148.70;;;134.85;;
21569;SDS011;57598;50.888;4.746;2023-02-04T02:54:07;143.70;;;130.02;;
21569;SDS011;57598;50.888;4.746;2023-02-04T02:56:39;129.77;;;117.07;;
21569;SDS011;57598;50.888;4.746;2023-02-04T02:59:12;133.52;;;120.63;;
21569;SDS011;57598;50.888;4.746;2023-02-04T03:01:40;131.95;;;119.13;;
21569;SDS011;57598;50.888;4.746;2023-02-04T03:04:07;125.43;;;112.88;;
21569;SDS011;57598;50.888;4.746;2023-02-04T03:06:35;126.40;;;113.70;;
21569;SDS011;57598;50.888;4.746;2023-02-04T03:09:02;130.55;;;117.75;;
21569;SDS011;57598;50.888;4.746;2023-02-04T03:11:30;132.00;;;118.90;;
21569;SDS011;57598;50.888;4.746;2023-02-04T03:13:58;131.98;;;118.97;;
21569;SDS011;57598;50.888;4.746;2023-02-04T03:16:27;134.52;;;121.70;;
21569;SDS011;57598;50.888;4.746;2023-02-04T03:18:57;139.13;;;125.95;;
21569;SDS011;57598;50.888;4.746;2023-02-04T03:21:24;136.73;;;123.68;;
21569;SDS011;57598;50.888;4.746;2023-02-04T03:23:52;134.60;;;121.55;;
21569;SDS011;57598;50.888;4.746;2023-02-04T03:26:20;130.82;;;117.97;;
21569;SDS011;57598;50.888;4.746;2023-02-04T03:28:48;133.65;;;120.65;;
21569;SDS011;57598;50.888;4.746;2023-02-04T03:31:15;128.20;;;115.63;;
21569;SDS011;57598;50.888;4.746;2023-02-04T03:33:44;123.97;;;111.57;;
21569;SDS011;57598;50.888;4.746;2023-02-04T03:36:11;128.82;;;116.22;;
21569;SDS011;57598;50.888;4.746;2023-02-04T03:38:38;124.78;;;112.30;;
21569;SDS011;57598;50.888;4.746;2023-02-04T03:41:06;120.38;;;108.18;;
21569;SDS011;57598;50.888;4.746;2023-02-04T03:43:33;122.07;;;109.65;;
21569;SDS011;57598;50.888;4.746;2023-02-04T03:46:00;121.60;;;109.15;;
21569;SDS011;57598;50.888;4.746;2023-02-04T03:48:27;120.93;;;108.35;;
21569;SDS011;57598;50.888;4.746;2023-02-04T03:50:56;122.60;;;109.80;;
21569;SDS011;57598;50.888;4.746;2023-02-04T03:53:23;123.05;;;110.35;;
21569;SDS011;57598;50.888;4.746;2023-02-04T03:55:51;126.55;;;113.88;;
21569;SDS011;57598;50.888;4.746;2023-02-04T03:58:18;128.95;;;116.35;;
21569;SDS011;57598;50.888;4.746;2023-02-04T04:00:45;125.75;;;113.28;;
21569;SDS011;57598;50.888;4.746;2023-02-04T04:03:12;118.30;;;106.15;;
21569;SDS011;57598;50.888;4.746;2023-02-04T04:05:39;125.25;;;112.95;;
21569;SDS011;57598;50.888;4.746;2023-02-04T04:08:08;120.93;;;109.13;;
21569;SDS011;57598;50.888;4.746;2023-02-04T04:10:35;132.35;;;120.30;;
21569;SDS011;57598;50.888;4.746;2023-02-04T04:13:03;116.15;;;104.65;;
21569;SDS011;57598;50.888;4.746;2023-02-04T04:15:30;113.85;;;102.38;;
21569;SDS011;57598;50.888;4.746;2023-02-04T04:17:58;104.30;;;93.35;;
21569;SDS011;57598;50.888;4.746;2023-02-04T04:20:26;108.30;;;97.28;;
21569;SDS011;57598;50.888;4.746;2023-02-04T04:22:53;110.00;;;98.90;;
21569;SDS011;57598;50.888;4.746;2023-02-04T04:25:21;111.45;;;100.65;;
21569;SDS011;57598;50.888;4.746;2023-02-04T04:27:49;108.13;;;97.28;;
21569;SDS011;57598;50.888;4.746;2023-02-04T04:30:16;110.15;;;99.25;;
21569;SDS011;57598;50.888;4.746;2023-02-04T04:32:44;106.53;;;95.63;;
21569;SDS011;57598;50.888;4.746;2023-02-04T04:35:11;105.75;;;95.05;;
21569;SDS011;57598;50.888;4.746;2023-02-04T04:37:38;102.65;;;92.05;;
21569;SDS011;57598;50.888;4.746;2023-02-04T04:40:05;106.22;;;95.60;;
21569;SDS011;57598;50.888;4.746;2023-02-04T04:42:34;98.88;;;88.50;;
21569;SDS011;57598;50.888;4.746;2023-02-04T04:45:01;100.15;;;89.72;;
21569;SDS011;57598;50.888;4.746;2023-02-04T04:47:29;101.05;;;90.75;;
21569;SDS011;57598;50.888;4.746;2023-02-04T04:49:56;103.38;;;93.00;;
21569;SDS011;57598;50.888;4.746;2023-02-04T04:52:23;100.78;;;90.65;;
21569;SDS011;57598;50.888;4.746;2023-02-04T04:54:51;97.32;;;87.20;;
21569;SDS011;57598;50.888;4.746;2023-02-04T04:57:18;98.20;;;88.03;;
21569;SDS011;57598;50.888;4.746;2023-02-04T04:59:46;97.45;;;87.35;;
21569;SDS011;57598;50.888;4.746;2023-02-04T05:02:14;100.18;;;89.88;;
21569;SDS011;57598;50.888;4.746;2023-02-04T05:04:41;101.55;;;91.20;;
21569;SDS011;57598;50.888;4.746;2023-02-04T05:07:08;99.50;;;89.28;;
21569;SDS011;57598;50.888;4.746;2023-02-04T05:09:35;98.15;;;88.15;;
21569;SDS011;57598;50.888;4.746;2023-02-04T05:12:03;100.53;;;90.40;;
21569;SDS011;57598;50.888;4.746;2023-02-04T05:14:30;99.88;;;89.95;;
21569;SDS011;57598;50.888;4.746;2023-02-04T05:16:59;97.13;;;87.05;;
21569;SDS011;57598;50.888;4.746;2023-02-04T05:19:26;104.28;;;94.07;;
21569;SDS011;57598;50.888;4.746;2023-02-04T05:21:53;105.78;;;95.57;;
21569;SDS011;57598;50.888;4.746;2023-02-04T05:24:21;93.97;;;83.97;;
21569;SDS011;57598;50.888;4.746;2023-02-04T05:26:49;98.43;;;88.13;;
21569;SDS011;57598;50.888;4.746;2023-02-04T05:29:16;108.68;;;98.22;;
21569;SDS011;57598;50.888;4.746;2023-02-04T05:31:43;94.60;;;84.55;;
21569;SDS011;57598;50.888;4.746;2023-02-04T05:34:12;103.38;;;93.07;;
21569;SDS011;57598;50.888;4.746;2023-02-04T05:36:39;114.13;;;103.40;;
21569;SDS011;57598;50.888;4.746;2023-02-04T05:39:06;99.28;;;89.10;;
21569;SDS011;57598;50.888;4.746;2023-02-04T05:41:33;94.40;;;84.35;;
21569;SDS011;57598;50.888;4.746;2023-02-04T05:44:01;97.88;;;87.78;;
21569;SDS011;57598;50.888;4.746;2023-02-04T05:46:28;97.85;;;87.40;;
21569;SDS011;57598;50.888;4.746;2023-02-04T05:48:55;103.75;;;93.07;;
21569;SDS011;57598;50.888;4.746;2023-02-04T05:51:24;101.95;;;91.28;;
21569;SDS011;57598;50.888;4.746;2023-02-04T05:53:51;111.57;;;100.88;;
21569;SDS011;57598;50.888;4.746;2023-02-04T05:56:18;101.75;;;91.35;;
21569;SDS011;57598;50.888;4.746;2023-02-04T05:58:45;102.32;;;92.03;;
21569;SDS011;57598;50.888;4.746;2023-02-04T06:01:13;112.18;;;101.68;;
21569;SDS011;57598;50.888;4.746;2023-02-04T06:03:40;108.43;;;98.18;;
21569;SDS011;57598;50.888;4.746;2023-02-04T06:06:07;101.53;;;91.32;;
21569;SDS011;57598;50.888;4.746;2023-02-04T06:08:36;102.38;;;92.07;;
21569;SDS011;57598;50.888;4.746;2023-02-04T06:11:03;107.70;;;97.32;;
21569;SDS011;57598;50.888;4.746;2023-02-04T06:13:30;94.57;;;84.57;;
21569;SDS011;57598;50.888;4.746;2023-02-04T06:15:58;98.18;;;87.90;;
21569;SDS011;57598;50.888;4.746;2023-02-04T06:18:25;93.10;;;83.00;;
21569;SDS011;57598;50.888;4.746;2023-02-04T06:20:52;96.20;;;85.90;;
21569;SDS011;57598;50.888;4.746;2023-02-04T06:23:19;93.13;;;82.95;;
21569;SDS011;57598;50.888;4.746;2023-02-04T06:25:48;96.03;;;85.82;;
21569;SDS011;57598;50.888;4.746;2023-02-04T06:28:15;98.93;;;88.82;;
21569;SDS011;57598;50.888;4.746;2023-02-04T06:30:42;102.68;;;91.97;;
21569;SDS011;57598;50.888;4.746;2023-02-04T06:33:10;101.55;;;90.63;;
21569;SDS011;57598;50.888;4.746;2023-02-04T06:35:37;98.60;;;88.32;;
21569;SDS011;57598;50.888;4.746;2023-02-04T06:38:04;104.32;;;93.93;;
21569;SDS011;57598;50.888;4.746;2023-02-04T06:40:31;98.00;;;87.75;;
21569;SDS011;57598;50.888;4.746;2023-02-04T06:43:00;101.63;;;91.22;;
21569;SDS011;57598;50.888;4.746;2023-02-04T06:45:27;98.00;;;87.65;;
21569;SDS011;57598;50.888;4.746;2023-02-04T06:47:55;100.22;;;89.97;;
21569;SDS011;57598;50.888;4.746;2023-02-04T06:50:22;103.78;;;93.35;;
21569;SDS011;57598;50.888;4.746;2023-02-04T06:52:49;100.82;;;90.45;;
21569;SDS011;57598;50.888;4.746;2023-02-04T06:55:16;99.53;;;88.80;;
21569;SDS011;57598;50.888;4.746;2023-02-04T06:57:44;95.20;;;85.18;;
21569;SDS011;57598;50.888;4.746;2023-02-04T07:00:13;97.30;;;86.82;;
21569;SDS011;57598;50.888;4.746;2023-02-04T07:02:40;92.78;;;82.68;;
21569;SDS011;57598;50.888;4.746;2023-02-04T07:05:08;95.97;;;85.57;;
21569;SDS011;57598;50.888;4.746;2023-02-04T07:07:35;94.57;;;84.22;;
21569;SDS011;57598;50.888;4.746;2023-02-04T07:10:02;94.07;;;83.70;;
21569;SDS011;57598;50.888;4.746;2023-02-04T07:12:29;99.03;;;89.13;;
21569;SDS011;57598;50.888;4.746;2023-02-04T07:14:57;89.70;;;80.20;;
21569;SDS011;57598;50.888;4.746;2023-02-04T07:17:25;95.28;;;85.18;;
21569;SDS011;57598;50.888;4.746;2023-02-04T07:19:53;96.93;;;86.45;;
21569;SDS011;57598;50.888;4.746;2023-02-04T07:22:20;99.95;;;89.22;;
21569;SDS011;57598;50.888;4.746;2023-02-04T07:24:47;104.28;;;93.85;;
21569;SDS011;57598;50.888;4.746;2023-02-04T07:27:14;95.88;;;86.00;;
21569;SDS011;57598;50.888;4.746;2023-02-04T07:29:42;100.90;;;90.90;;
21569;SDS011;57598;50.888;4.746;2023-02-04T07:32:09;99.45;;;89.25;;
21569;SDS011;57598;50.888;4.746;2023-02-04T07:34:38;92.65;;;83.00;;
21569;SDS011;57598;50.888;4.746;2023-02-04T07:37:05;95.70;;;85.80;;
21569;SDS011;57598;50.888;4.746;2023-02-04T07:39:32;97.93;;;87.68;;
21569;SDS011;57598;50.888;4.746;2023-02-04T07:42:00;99.03;;;89.47;;
21569;SDS011;57598;50.888;4.746;2023-02-04T07:44:28;113.78;;;103.68;;
21569;SDS011;57598;50.888;4.746;2023-02-04T07:46:55;96.35;;;86.82;;
21569;SDS011;57598;50.888;4.746;2023-02-04T07:49:22;90.93;;;81.53;;
21569;SDS011;57598;50.888;4.746;2023-02-04T07:51:52;89.45;;;80.05;;
21569;SDS011;57598;50.888;4.746;2023-02-04T07:54:19;86.22;;;76.72;;
21569;SDS011;57598;50.888;4.746;2023-02-04T07:56:46;85.50;;;76.38;;
21569;SDS011;57598;50.888;4.746;2023-02-04T07:59:14;93.05;;;83.57;;
21569;SDS011;57598;50.888;4.746;2023-02-04T08:01:41;97.22;;;87.93;;
21569;SDS011;57598;50.888;4.746;2023-02-04T08:04:08;100.65;;;90.93;;
21569;SDS011;57598;50.888;4.746;2023-02-04T08:06:35;97.00;;;87.50;;
21569;SDS011;57598;50.888;4.746;2023-02-04T08:09:04;93.43;;;84.15;;
21569;SDS011;57598;50.888;4.746;2023-02-04T08:11:31;96.32;;;86.82;;
21569;SDS011;57598;50.888;4.746;2023-02-04T08:13:58;101.90;;;92.30;;
21569;SDS011;57598;50.888;4.746;2023-02-04T08:16:26;91.68;;;82.45;;
21569;SDS011;57598;50.888;4.746;2023-02-04T08:18:53;90.38;;;81.07;;
21569;SDS011;57598;50.888;4.746;2023-02-04T08:21:20;92.28;;;82.68;;
21569;SDS011;57598;50.888;4.746;2023-02-04T08:23:47;86.25;;;77.18;;
21569;SDS011;57598;50.888;4.746;2023-02-04T08:26:16;87.35;;;78.38;;
21569;SDS011;57598;50.888;4.746;2023-02-04T08:28:43;87.38;;;78.35;;
21569;SDS011;57598;50.888;4.746;2023-02-04T08:31:11;90.82;;;81.70;;
21569;SDS011;57598;50.888;4.746;2023-02-04T08:33:38;89.80;;;80.80;;
21569;SDS011;57598;50.888;4.746;2023-02-04T08:36:06;91.65;;;82.75;;
21569;SDS011;57598;50.888;4.746;2023-02-04T08:38:33;88.78;;;80.07;;
21569;SDS011;57598;50.888;4.746;2023-02-04T08:41:01;91.75;;;82.55;;
21569;SDS011;57598;50.888;4.746;2023-02-04T08:43:29;86.88;;;78.18;;
21569;SDS011;57598;50.888;4.746;2023-02-04T08:45:56;85.88;;;77.03;;
21569;SDS011;57598;50.888;4.746;2023-02-04T08:48:24;82.97;;;74.55;;
21569;SDS011;57598;50.888;4.746;2023-02-04T08:50:51;85.75;;;77.15;;
21569;SDS011;57598;50.888;4.746;2023-02-04T08:53:18;85.65;;;77.05;;
21569;SDS011;57598;50.888;4.746;2023-02-04T08:55:45;85.13;;;76.63;;
21569;SDS011;57598;50.888;4.746;2023-02-04T08:58:13;89.25;;;80.65;;
21569;SDS011;57598;50.888;4.746;2023-02-04T09:00:41;86.50;;;78.10;;
21569;SDS011;57598;50.888;4.746;2023-02-04T09:03:08;85.70;;;77.40;;
21569;SDS011;57598;50.888;4.746;2023-02-04T09:05:36;82.82;;;74.70;;
21569;SDS011;57598;50.888;4.746;2023-02-04T09:08:03;86.47;;;78.00;;
21569;SDS011;57598;50.888;4.746;2023-02-04T09:10:30;83.43;;;74.97;;
21569;SDS011;57598;50.888;4.746;2023-02-04T09:12:57;90.30;;;81.60;;
21569;SDS011;57598;50.888;4.746;2023-02-04T09:15:25;85.45;;;77.25;;
21569;SDS011;57598;50.888;4.746;2023-02-04T09:17:53;81.45;;;73.43;;
21569;SDS011;57598;50.888;4.746;2023-02-04T09:20:28;76.35;;;68.32;;
21569;SDS011;57598;50.888;4.746;2023-02-04T09:22:55;78.85;;;70.75;;
21569;SDS011;57598;50.888;4.746;2023-02-04T09:25:23;84.10;;;76.15;;
21569;SDS011;57598;50.888;4.746;2023-02-04T09:27:50;77.88;;;69.88;;
21569;SDS011;57598;50.888;4.746;2023-02-04T09:30:17;77.03;;;69.40;;
21569;SDS011;57598;50.888;4.746;2023-02-04T09:32:45;77.03;;;69.22;;
21569;SDS011;57598;50.888;4.746;2023-02-04T09:35:13;79.15;;;71.45;;
21569;SDS011;57598;50.888;4.746;2023-02-04T09:37:41;79.70;;;72.10;;
21569;SDS011;57598;50.888;4.746;2023-02-04T09:40:09;76.70;;;69.20;;
21569;SDS011;57598;50.888;4.746;2023-02-04T09:42:41;80.10;;;72.45;;
21569;SDS011;57598;50.888;4.746;2023-02-04T09:45:09;74.72;;;67.32;;
21569;SDS011;57598;50.888;4.746;2023-02-04T09:47:40;72.05;;;64.75;;
21569;SDS011;57598;50.888;4.746;2023-02-04T09:50:08;71.45;;;64.45;;
21569;SDS011;57598;50.888;4.746;2023-02-04T09:52:37;74.47;;;67.28;;
21569;SDS011;57598;50.888;4.746;2023-02-04T09:55:04;74.38;;;67.22;;
21569;SDS011;57598;50.888;4.746;2023-02-04T09:57:35;71.80;;;64.80;;
21569;SDS011;57598;50.888;4.746;2023-02-04T10:00:05;70.85;;;64.05;;
21569;SDS011;57598;50.888;4.746;2023-02-04T10:02:33;70.03;;;63.22;;
21569;SDS011;57598;50.888;4.746;2023-02-04T10:05:00;67.20;;;60.50;;
21569;SDS011;57598;50.888;4.746;2023-02-04T10:07:27;69.38;;;62.53;;
21569;SDS011;57598;50.888;4.746;2023-02-04T10:09:58;68.80;;;62.10;;
21569;SDS011;57598;50.888;4.746;2023-02-04T10:12:25;71.13;;;64.60;;
21569;SDS011;57598;50.888;4.746;2023-02-04T10:14:53;72.30;;;65.60;;
21569;SDS011;57598;50.888;4.746;2023-02-04T10:17:20;69.03;;;62.53;;
21569;SDS011;57598;50.888;4.746;2023-02-04T10:19:48;69.03;;;62.53;;
21569;SDS011;57598;50.888;4.746;2023-02-04T10:22:16;68.95;;;62.30;;
21569;SDS011;57598;50.888;4.746;2023-02-04T10:24:44;71.10;;;64.70;;
21569;SDS011;57598;50.888;4.746;2023-02-04T10:27:13;70.57;;;64.13;;
21569;SDS011;57598;50.888;4.746;2023-02-04T10:29:41;69.57;;;63.28;;
21569;SDS011;57598;50.888;4.746;2023-02-04T10:32:25;72.00;;;65.63;;
21569;SDS011;57598;50.888;4.746;2023-02-04T10:34:56;70.25;;;64.00;;
21569;SDS011;57598;50.888;4.746;2023-02-04T10:37:24;69.80;;;63.58;;
21569;SDS011;57598;50.888;4.746;2023-02-04T10:39:51;67.25;;;61.05;;
21569;SDS011;57598;50.888;4.746;2023-02-04T10:42:21;69.60;;;63.65;;
21569;SDS011;57598;50.888;4.746;2023-02-04T10:44:49;67.20;;;61.60;;
21569;SDS011;57598;50.888;4.746;2023-02-04T10:47:17;69.47;;;63.72;;
21569;SDS011;57598;50.888;4.746;2023-02-04T10:49:51;69.18;;;63.28;;
21569;SDS011;57598;50.888;4.746;2023-02-04T10:52:19;67.97;;;62.08;;
21569;SDS011;57598;50.888;4.746;2023-02-04T10:54:47;73.55;;;67.35;;
21569;SDS011;57598;50.888;4.746;2023-02-04T10:57:16;71.07;;;64.97;;
21569;SDS011;57598;50.888;4.746;2023-02-04T10:59:45;68.70;;;62.80;;
21569;SDS011;57598;50.888;4.746;2023-02-04T11:04:58;69.30;;;63.40;;
21569;SDS011;57598;50.888;4.746;2023-02-04T11:07:26;69.30;;;63.10;;
21569;SDS011;57598;50.888;4.746;2023-02-04T11:09:54;72.03;;;65.72;;
21569;SDS011;57598;50.888;4.746;2023-02-04T11:12:22;75.28;;;68.90;;
21569;SDS011;57598;50.888;4.746;2023-02-04T11:14:55;74.22;;;67.72;;
21569;SDS011;57598;50.888;4.746;2023-02-04T11:17:27;75.40;;;68.75;;
21569;SDS011;57598;50.888;4.746;2023-02-04T11:19:55;77.05;;;70.35;;
21569;SDS011;57598;50.888;4.746;2023-02-04T11:22:35;78.70;;;71.88;;
21569;SDS011;57598;50.888;4.746;2023-02-04T11:25:02;75.68;;;68.97;;
21569;SDS011;57598;50.888;4.746;2023-02-04T11:27:36;76.32;;;69.43;;
21569;SDS011;57598;50.888;4.746;2023-02-04T11:30:06;78.38;;;71.57;;
21569;SDS011;57598;50.888;4.746;2023-02-04T11:32:34;77.97;;;71.05;;
21569;SDS011;57598;50.888;4.746;2023-02-04T11:35:06;77.68;;;70.43;;
21569;SDS011;57598;50.888;4.746;2023-02-04T11:37:37;78.75;;;71.90;;
21569;SDS011;57598;50.888;4.746;2023-02-04T11:40:21;82.23;;;74.50;;
21569;SDS011;57598;50.888;4.746;2023-02-04T11:42:49;79.47;;;72.57;;
21569;SDS011;57598;50.888;4.746;2023-02-04T11:45:23;76.45;;;69.35;;
21569;SDS011;57598;50.888;4.746;2023-02-04T11:47:51;76.78;;;69.78;;
21569;SDS011;57598;50.888;4.746;2023-02-04T11:50:19;79.82;;;73.03;;
21569;SDS011;57598;50.888;4.746;2023-02-04T11:52:49;72.03;;;65.50;;
21569;SDS011;57598;50.888;4.746;2023-02-04T11:55:16;74.25;;;67.65;;
21569;SDS011;57598;50.888;4.746;2023-02-04T11:57:44;75.13;;;68.53;;
21569;SDS011;57598;50.888;4.746;2023-02-04T12:00:12;75.85;;;69.05;;
21569;SDS011;57598;50.888;4.746;2023-02-04T12:02:44;77.68;;;70.78;;
21569;SDS011;57598;50.888;4.746;2023-02-04T12:05:12;75.68;;;68.68;;
21569;SDS011;57598;50.888;4.746;2023-02-04T12:07:40;72.60;;;65.70;;
21569;SDS011;57598;50.888;4.746;2023-02-04T12:10:12;75.88;;;68.30;;
21569;SDS011;57598;50.888;4.746;2023-02-04T12:12:41;73.40;;;66.45;;
21569;SDS011;57598;50.888;4.746;2023-02-04T12:15:12;74.85;;;68.05;;
21569;SDS011;57598;50.888;4.746;2023-02-04T12:20:09;69.65;;;63.28;;
21569;SDS011;57598;50.888;4.746;2023-02-04T12:22:37;69.07;;;62.97;;
21569;SDS011;57598;50.888;4.746;2023-02-04T12:25:04;70.40;;;64.10;;
21569;SDS011;57598;50.888;4.746;2023-02-04T12:27:32;71.88;;;65.57;;
21569;SDS011;57598;50.888;4.746;2023-02-04T12:29:59;72.88;;;66.53;;
21569;SDS011;57598;50.888;4.746;2023-02-04T12:32:26;66.28;;;60.28;;
21569;SDS011;57598;50.888;4.746;2023-02-04T12:34:53;65.78;;;59.85;;
21569;SDS011;57598;50.888;4.746;2023-02-04T12:37:22;65.93;;;60.05;;
21569;SDS011;57598;50.888;4.746;2023-02-04T12:39:49;70.18;;;64.18;;
21569;SDS011;57598;50.888;4.746;2023-02-04T12:42:17;72.75;;;66.65;;
21569;SDS011;57598;50.888;4.746;2023-02-04T12:44:44;70.30;;;64.20;;
21569;SDS011;57598;50.888;4.746;2023-02-04T12:47:11;65.88;;;59.97;;
21569;SDS011;57598;50.888;4.746;2023-02-04T12:49:38;68.10;;;62.30;;
21569;SDS011;57598;50.888;4.746;2023-02-04T12:52:06;69.53;;;63.53;;
21569;SDS011;57598;50.888;4.746;2023-02-04T12:54:34;67.65;;;61.55;;
21569;SDS011;57598;50.888;4.746;2023-02-04T12:57:02;66.70;;;60.83;;
21569;SDS011;57598;50.888;4.746;2023-02-04T12:59:30;68.07;;;62.05;;
21569;SDS011;57598;50.888;4.746;2023-02-04T13:01:57;69.03;;;63.03;;
21569;SDS011;57598;50.888;4.746;2023-02-04T13:04:24;68.57;;;62.58;;
21569;SDS011;57598;50.888;4.746;2023-02-04T13:06:52;72.95;;;67.03;;
21569;SDS011;57598;50.888;4.746;2023-02-04T13:09:19;68.38;;;62.38;;
21569;SDS011;57598;50.888;4.746;2023-02-04T13:11:47;66.28;;;60.58;;
21569;SDS011;57598;50.888;4.746;2023-02-04T13:14:15;68.72;;;62.97;;
21569;SDS011;57598;50.888;4.746;2023-02-04T13:16:42;69.22;;;63.40;;
21569;SDS011;57598;50.888;4.746;2023-02-04T13:19:09;68.22;;;62.35;;
21569;SDS011;57598;50.888;4.746;2023-02-04T13:21:36;70.45;;;64.55;;
21569;SDS011;57598;50.888;4.746;2023-02-04T13:24:04;71.10;;;65.30;;
21569;SDS011;57598;50.888;4.746;2023-02-04T13:26:31;69.45;;;63.75;;
21569;SDS011;57598;50.888;4.746;2023-02-04T13:29:00;70.88;;;65.07;;
21569;SDS011;57598;50.888;4.746;2023-02-04T13:31:27;69.25;;;63.35;;
21569;SDS011;57598;50.888;4.746;2023-02-04T13:33:54;67.88;;;62.08;;
21569;SDS011;57598;50.888;4.746;2023-02-04T13:36:21;68.32;;;62.42;;
21569;SDS011;57598;50.888;4.746;2023-02-04T13:38:51;68.80;;;63.20;;
21569;SDS011;57598;50.888;4.746;2023-02-04T13:41:19;65.78;;;60.47;;
21569;SDS011;57598;50.888;4.746;2023-02-04T13:43:46;64.97;;;59.60;;
21569;SDS011;57598;50.888;4.746;2023-02-04T13:46:14;63.63;;;58.53;;
21569;SDS011;57598;50.888;4.746;2023-02-04T13:48:42;65.03;;;59.92;;
21569;SDS011;57598;50.888;4.746;2023-02-04T13:51:09;66.65;;;61.55;;
21569;SDS011;57598;50.888;4.746;2023-02-04T13:53:36;66.28;;;59.92;;
21569;SDS011;57598;50.888;4.746;2023-02-04T13:56:03;64.82;;;59.83;;
21569;SDS011;57598;50.888;4.746;2023-02-04T13:58:31;66.05;;;60.97;;
21569;SDS011;57598;50.888;4.746;2023-02-04T14:00:58;66.70;;;61.80;;
21569;SDS011;57598;50.888;4.746;2023-02-04T14:03:27;67.65;;;62.53;;
21569;SDS011;57598;50.888;4.746;2023-02-04T14:05:55;63.65;;;59.05;;
21569;SDS011;57598;50.888;4.746;2023-02-04T14:08:22;62.55;;;57.95;;
21569;SDS011;57598;50.888;4.746;2023-02-04T14:10:49;62.80;;;58.08;;
21569;SDS011;57598;50.888;4.746;2023-02-04T14:13:17;60.10;;;56.00;;
21569;SDS011;57598;50.888;4.746;2023-02-04T14:15:44;60.00;;;55.90;;
21569;SDS011;57598;50.888;4.746;2023-02-04T14:18:11;59.63;;;55.30;;
21569;SDS011;57598;50.888;4.746;2023-02-04T14:20:41;59.67;;;55.72;;
21569;SDS011;57598;50.888;4.746;2023-02-04T14:23:09;60.70;;;56.60;;
21569;SDS011;57598;50.888;4.746;2023-02-04T14:25:37;59.60;;;55.67;;
21569;SDS011;57598;50.888;4.746;2023-02-04T14:28:04;60.00;;;55.95;;
21569;SDS011;57598;50.888;4.746;2023-02-04T14:30:32;58.85;;;55.00;;
21569;SDS011;57598;50.888;4.746;2023-02-04T14:32:59;60.42;;;56.28;;
21569;SDS011;57598;50.888;4.746;2023-02-04T14:35:26;60.30;;;56.30;;
21569;SDS011;57598;50.888;4.746;2023-02-04T14:37:57;59.60;;;55.65;;
21569;SDS011;57598;50.888;4.746;2023-02-04T14:40:35;59.90;;;55.92;;
21569;SDS011;57598;50.888;4.746;2023-02-04T14:43:05;59.90;;;56.00;;